Time;durP1;ratioP1;P1;durP2;ratioP2;P2;SDS_P1;SDS_P2;PMS_P1;PMS_P2;Temp;Humidity;BMP_temperature;BMP_pressure;BME280_temperature;BME280_humidity;BME280_pressure;Samples;Min_cycle;Max_cycle;Signal;HPM_P1;HPM_P2
2021/10/07 00:00:40;;;;;;;14.10;9.80;;;;;;;;;;5092411;28;20179;-73
2021/10/07 00:03:05;;;;;;;20.57;11.13;;;;;;;;;;5093333;28;20224;-73
2021/10/07 00:05:30;;;;;;;17.10;11.50;;;;;;;;;;5070655;28;20745;-75
2021/10/07 00:07:56;;;;;;;15.87;10.73;;;;;;;;;;5075795;28;20199;-75
2021/10/07 00:10:22;;;;;;;17.03;10.63;;;;;;;;;;5078101;28;20191;-74
2021/10/07 00:12:47;;;;;;;16.47;11.00;;;;;;;;;;5077306;28;20682;-75
2021/10/07 00:15:12;;;;;;;17.03;11.77;;;;;;;;;;5076701;28;20187;-75
2021/10/07 00:17:37;;;;;;;19.10;10.20;;;;;;;;;;5077819;28;20169;-75
2021/10/07 00:20:04;;;;;;;18.87;10.90;;;;;;;;;;5076045;28;20172;-75
2021/10/07 00:22:29;;;;;;;17.20;11.73;;;;;;;;;;5077959;28;20176;-75
2021/10/07 00:24:55;;;;;;;14.87;10.10;;;;;;;;;;5087393;28;20545;-75
2021/10/07 00:27:20;;;;;;;16.50;10.83;;;;;;;;;;5076790;28;20177;-75
2021/10/07 00:29:46;;;;;;;14.37;10.33;;;;;;;;;;5076635;28;20185;-75
2021/10/07 00:37:21;;;;;;;18.77;12.13;;;;;;;;;;5077578;28;20586;-75
2021/10/07 00:39:47;;;;;;;16.27;10.53;;;;;;;;;;5077584;28;20298;-77
2021/10/07 00:42:12;;;;;;;14.07;10.97;;;;;;;;;;5075239;28;20209;-75
2021/10/07 00:44:39;;;;;;;18.57;11.33;;;;;;;;;;5076865;28;20208;-75
2021/10/07 00:47:05;;;;;;;17.90;11.83;;;;;;;;;;5075315;28;20188;-76
2021/10/07 00:49:38;;;;;;;23.37;11.47;;;;;;;;;;5075153;28;20161;-76
2021/10/07 00:52:04;;;;;;;17.50;12.00;;;;;;;;;;5075640;28;20253;-76
2021/10/07 00:54:29;;;;;;;16.43;10.90;;;;;;;;;;5075450;28;20296;-75
2021/10/07 00:56:55;;;;;;;19.17;11.43;;;;;;;;;;5068390;28;20559;-76
2021/10/07 00:59:21;;;;;;;18.60;11.00;;;;;;;;;;5074580;28;20227;-76
2021/10/07 01:01:46;;;;;;;20.93;11.20;;;;;;;;;;5078450;28;20173;-75
2021/10/07 01:04:11;;;;;;;16.50;10.60;;;;;;;;;;5074088;28;20205;-76
2021/10/07 01:06:38;;;;;;;20.70;12.23;;;;;;;;;;5074539;28;20234;-76
2021/10/07 01:09:03;;;;;;;14.57;11.27;;;;;;;;;;5072061;28;20645;-76
2021/10/07 01:11:29;;;;;;;20.47;12.83;;;;;;;;;;5076201;28;20222;-75
2021/10/07 01:13:55;;;;;;;17.57;10.77;;;;;;;;;;5075602;28;20205;-76
2021/10/07 01:16:20;;;;;;;21.87;12.87;;;;;;;;;;5075402;28;20169;-76
2021/10/07 01:18:45;;;;;;;16.97;12.30;;;;;;;;;;5071302;28;20208;-76
2021/10/07 01:21:11;;;;;;;19.17;12.37;;;;;;;;;;5072512;28;20196;-76
2021/10/07 01:23:39;;;;;;;22.73;14.07;;;;;;;;;;5068977;28;20475;-78
2021/10/07 01:26:04;;;;;;;17.00;11.27;;;;;;;;;;5072359;28;20238;-76
2021/10/07 01:28:30;;;;;;;20.57;11.60;;;;;;;;;;5070415;28;20380;-76
2021/10/07 01:30:55;;;;;;;23.03;11.50;;;;;;;;;;5072154;28;20645;-76
2021/10/07 01:33:20;;;;;;;22.07;10.87;;;;;;;;;;5069253;28;20242;-76
2021/10/07 01:35:45;;;;;;;18.93;10.80;;;;;;;;;;5070868;28;20642;-77
2021/10/07 01:38:10;;;;;;;18.83;10.07;;;;;;;;;;5072789;28;20263;-77
2021/10/07 01:40:36;;;;;;;15.97;9.83;;;;;;;;;;5071327;28;20215;-77
2021/10/07 01:43:01;;;;;;;15.40;9.17;;;;;;;;;;5085430;22;20223;-78
2021/10/07 01:45:26;;;;;;;18.87;10.60;;;;;;;;;;5087521;28;20208;-79
2021/10/07 01:47:52;;;;;;;18.07;9.53;;;;;;;;;;5093788;28;20168;-78
2021/10/07 01:50:17;;;;;;;17.23;9.70;;;;;;;;;;5100490;28;20184;-78
2021/10/07 01:52:42;;;;;;;21.37;10.10;;;;;;;;;;5098880;28;20298;-78
2021/10/07 01:55:08;;;;;;;16.67;10.00;;;;;;;;;;5092791;28;20173;-78
2021/10/07 01:57:34;;;;;;;21.27;9.33;;;;;;;;;;5091593;28;20724;-78
2021/10/07 01:59:59;;;;;;;20.43;8.83;;;;;;;;;;5096598;28;20228;-79
2021/10/07 02:02:24;;;;;;;13.80;9.10;;;;;;;;;;5089688;28;20184;-78
2021/10/07 02:04:49;;;;;;;15.70;9.30;;;;;;;;;;5091566;28;20679;-78
2021/10/07 02:07:14;;;;;;;23.77;10.50;;;;;;;;;;5090853;28;20237;-78
2021/10/07 02:09:40;;;;;;;23.13;9.63;;;;;;;;;;5093211;28;20172;-78
2021/10/07 02:12:05;;;;;;;16.47;8.80;;;;;;;;;;5091734;28;20266;-78
2021/10/07 02:14:30;;;;;;;17.13;9.10;;;;;;;;;;5092131;28;20207;-78
2021/10/07 02:16:55;;;;;;;19.27;9.63;;;;;;;;;;5084625;28;20272;-78
2021/10/07 02:19:21;;;;;;;22.13;10.43;;;;;;;;;;5087309;28;20172;-78
2021/10/07 02:21:46;;;;;;;24.50;9.90;;;;;;;;;;5087540;28;20181;-78
2021/10/07 02:24:11;;;;;;;20.30;9.87;;;;;;;;;;5087595;28;20317;-78
2021/10/07 02:26:36;;;;;;;17.30;10.00;;;;;;;;;;5092418;28;20548;-78
2021/10/07 02:29:02;;;;;;;17.80;8.90;;;;;;;;;;5089172;28;20224;-78
2021/10/07 02:31:27;;;;;;;18.20;8.57;;;;;;;;;;5089540;28;20663;-78
2021/10/07 02:33:54;;;;;;;16.40;9.30;;;;;;;;;;5089205;28;20220;-78
2021/10/07 02:36:20;;;;;;;20.73;9.17;;;;;;;;;;5082601;28;20172;-78
2021/10/07 02:38:45;;;;;;;18.97;9.93;;;;;;;;;;5089768;28;20263;-78
2021/10/07 02:41:10;;;;;;;20.63;9.60;;;;;;;;;;5090503;28;20189;-78
2021/10/07 02:43:35;;;;;;;16.67;8.77;;;;;;;;;;5087935;28;20315;-78
2021/10/07 02:46:00;;;;;;;20.77;9.87;;;;;;;;;;5089951;28;20654;-78
2021/10/07 02:48:26;;;;;;;14.97;8.87;;;;;;;;;;5090372;28;20180;-78
2021/10/07 02:50:51;;;;;;;15.90;9.10;;;;;;;;;;5090831;28;20183;-78
2021/10/07 02:53:16;;;;;;;19.67;9.47;;;;;;;;;;5082701;28;20239;-78
2021/10/07 02:55:41;;;;;;;19.23;8.97;;;;;;;;;;5089702;28;20264;-78
2021/10/07 02:58:06;;;;;;;24.90;9.10;;;;;;;;;;5090985;28;20230;-77
2021/10/07 03:00:31;;;;;;;20.20;9.73;;;;;;;;;;5087618;28;20179;-78
2021/10/07 03:02:57;;;;;;;20.10;8.53;;;;;;;;;;5090303;28;20176;-78
2021/10/07 03:05:22;;;;;;;18.53;8.43;;;;;;;;;;5077752;28;20555;-78
2021/10/07 03:07:47;;;;;;;16.17;7.97;;;;;;;;;;5089984;28;20617;-78
2021/10/07 03:10:12;;;;;;;22.97;8.53;;;;;;;;;;5088769;28;20253;-78
2021/10/07 03:12:37;;;;;;;18.07;7.67;;;;;;;;;;5088600;28;20200;-76
2021/10/07 03:15:03;;;;;;;22.80;8.30;;;;;;;;;;5090253;28;20227;-78
2021/10/07 03:17:28;;;;;;;19.97;7.80;;;;;;;;;;5091171;28;20172;-78
2021/10/07 03:19:53;;;;;;;16.13;7.83;;;;;;;;;;5090074;28;20168;-78
2021/10/07 03:22:21;;;;;;;16.30;7.80;;;;;;;;;;5089235;28;20168;-78
2021/10/07 03:24:46;;;;;;;15.17;7.13;;;;;;;;;;5082968;28;20195;-78
2021/10/07 03:27:11;;;;;;;19.67;7.80;;;;;;;;;;5090409;28;20544;-78
2021/10/07 03:29:36;;;;;;;11.73;6.70;;;;;;;;;;5087752;28;20172;-78
2021/10/07 03:32:02;;;;;;;13.70;7.03;;;;;;;;;;5084137;28;20180;-79
2021/10/07 03:34:27;;;;;;;13.80;6.93;;;;;;;;;;5086186;28;20636;-78
2021/10/07 03:36:52;;;;;;;22.57;8.20;;;;;;;;;;5089927;28;20647;-78
2021/10/07 03:39:18;;;;;;;18.77;8.33;;;;;;;;;;5089624;28;20175;-78
2021/10/07 03:41:43;;;;;;;17.03;7.07;;;;;;;;;;5088320;28;20180;-78
2021/10/07 03:44:08;;;;;;;9.87;6.50;;;;;;;;;;5090807;28;20241;-78
2021/10/07 03:46:33;;;;;;;11.03;6.77;;;;;;;;;;5089051;28;20176;-78
2021/10/07 03:48:59;;;;;;;9.87;5.80;;;;;;;;;;5088322;28;20290;-78
2021/10/07 03:51:24;;;;;;;12.63;6.27;;;;;;;;;;5084002;28;20248;-78
2021/10/07 03:53:49;;;;;;;14.37;6.90;;;;;;;;;;5093586;28;20208;-78
2021/10/07 03:56:14;;;;;;;10.37;6.77;;;;;;;;;;5091865;28;20184;-78
2021/10/07 03:58:40;;;;;;;15.00;7.03;;;;;;;;;;5090260;28;20172;-78
2021/10/07 04:01:05;;;;;;;13.60;7.27;;;;;;;;;;5092426;28;20179;-77
2021/10/07 04:03:30;;;;;;;18.77;7.43;;;;;;;;;;5088675;28;20279;-78
2021/10/07 04:05:56;;;;;;;12.30;7.00;;;;;;;;;;5086277;28;20188;-78
2021/10/07 04:08:21;;;;;;;21.23;7.47;;;;;;;;;;5088821;28;20208;-78
2021/10/07 04:10:50;;;;;;;19.77;8.23;;;;;;;;;;5091999;28;20566;-78
2021/10/07 04:13:15;;;;;;;13.83;8.33;;;;;;;;;;5089869;28;20216;-78
2021/10/07 04:15:40;;;;;;;12.40;6.83;;;;;;;;;;5090070;28;20534;-78
2021/10/07 04:18:06;;;;;;;18.23;8.03;;;;;;;;;;5087911;28;20271;-78
2021/10/07 04:20:31;;;;;;;13.00;7.63;;;;;;;;;;5089341;28;20637;-78
2021/10/07 04:22:56;;;;;;;13.27;7.70;;;;;;;;;;5087337;28;20268;-78
2021/10/07 04:25:21;;;;;;;17.97;8.13;;;;;;;;;;5089213;28;20172;-78
2021/10/07 04:27:47;;;;;;;12.70;7.60;;;;;;;;;;5092158;28;20187;-78
2021/10/07 04:30:12;;;;;;;15.77;8.07;;;;;;;;;;5096849;28;20179;-78
2021/10/07 04:32:37;;;;;;;13.00;7.50;;;;;;;;;;5092771;28;20233;-78
2021/10/07 04:35:04;;;;;;;16.20;7.60;;;;;;;;;;5089274;28;20196;-77
2021/10/07 04:37:29;;;;;;;12.13;7.32;;;;;;;;;;5093476;28;20185;-78
2021/10/07 04:39:54;;;;;;;16.43;7.27;;;;;;;;;;5091761;28;20183;-78
2021/10/07 04:42:19;;;;;;;15.10;7.72;;;;;;;;;;5095507;28;20641;-78
2021/10/07 04:44:44;;;;;;;13.98;7.95;;;;;;;;;;5094189;28;20218;-79
2021/10/07 04:47:10;;;;;;;13.15;7.43;;;;;;;;;;5086252;28;20722;-80
2021/10/07 04:49:36;;;;;;;9.97;7.30;;;;;;;;;;5089328;28;20180;-79
2021/10/07 04:52:01;;;;;;;11.03;7.70;;;;;;;;;;5085928;28;20179;-79
2021/10/07 04:54:26;;;;;;;12.63;8.18;;;;;;;;;;5090842;28;20613;-77
2021/10/07 04:56:51;;;;;;;14.18;7.88;;;;;;;;;;5094014;28;20168;-79
2021/10/07 04:59:16;;;;;;;17.85;8.05;;;;;;;;;;5092854;28;20184;-78
2021/10/07 05:01:41;;;;;;;15.48;8.73;;;;;;;;;;5088208;28;20176;-78
2021/10/07 05:04:07;;;;;;;14.15;8.00;;;;;;;;;;5091814;28;20206;-79
2021/10/07 05:06:32;;;;;;;9.20;6.85;;;;;;;;;;5086618;28;20188;-79
2021/10/07 05:08:57;;;;;;;13.40;7.70;;;;;;;;;;5092282;28;20684;-79
2021/10/07 05:11:22;;;;;;;11.02;7.65;;;;;;;;;;5093291;28;20563;-81
2021/10/07 05:13:48;;;;;;;14.25;8.52;;;;;;;;;;5091021;28;20227;-78
2021/10/07 05:16:13;;;;;;;16.30;9.35;;;;;;;;;;5094362;28;20184;-77
2021/10/07 05:18:38;;;;;;;22.55;10.13;;;;;;;;;;5096374;28;20214;-81
2021/10/07 05:21:03;;;;;;;14.13;9.13;;;;;;;;;;5098785;28;20160;-81
2021/10/07 05:23:29;;;;;;;17.73;10.20;;;;;;;;;;5097214;28;20196;-81
2021/10/07 05:25:54;;;;;;;22.40;10.90;;;;;;;;;;5096826;28;20193;-81
2021/10/07 05:28:19;;;;;;;21.25;10.05;;;;;;;;;;5098277;28;20649;-80
2021/10/07 05:30:45;;;;;;;12.85;8.70;;;;;;;;;;5093901;28;20196;-82
2021/10/07 05:33:10;;;;;;;18.40;9.80;;;;;;;;;;5096061;28;20197;-80
2021/10/07 05:35:35;;;;;;;14.68;8.43;;;;;;;;;;5089475;28;20180;-81
2021/10/07 05:38:00;;;;;;;17.25;10.65;;;;;;;;;;5099752;28;20180;-80
2021/10/07 05:40:25;;;;;;;16.38;11.27;;;;;;;;;;5097614;28;20249;-80
2021/10/07 05:42:51;;;;;;;13.60;9.07;;;;;;;;;;5099303;28;20641;-82
2021/10/07 05:45:16;;;;;;;14.00;9.38;;;;;;;;;;5098409;28;20212;-82
2021/10/07 05:47:41;;;;;;;18.02;10.48;;;;;;;;;;5100246;28;20168;-82
2021/10/07 05:50:07;;;;;;;17.27;9.90;;;;;;;;;;5099613;28;20179;-80
2021/10/07 05:52:32;;;;;;;16.17;10.38;;;;;;;;;;5098994;28;20600;-80
2021/10/07 05:54:58;;;;;;;20.20;10.88;;;;;;;;;;5097636;28;20200;-81
2021/10/07 05:57:24;;;;;;;25.38;10.48;;;;;;;;;;5098209;28;20177;-82
2021/10/07 05:59:49;;;;;;;19.73;9.65;;;;;;;;;;5095213;28;20555;-82
2021/10/07 06:02:15;;;;;;;17.52;10.63;;;;;;;;;;5103406;28;20263;-82
2021/10/07 06:04:40;;;;;;;27.45;13.55;;;;;;;;;;5097703;28;20279;-82
2021/10/07 06:07:05;;;;;;;29.65;12.15;;;;;;;;;;5105968;28;20180;-81
2021/10/07 06:09:31;;;;;;;17.42;11.13;;;;;;;;;;5099545;28;20173;-81
2021/10/07 06:11:56;;;;;;;19.45;10.18;;;;;;;;;;5102977;28;20184;-82
2021/10/07 06:14:23;;;;;;;23.10;10.18;;;;;;;;;;5099579;28;20199;-82
2021/10/07 06:16:50;;;;;;;17.52;10.80;;;;;;;;;;5098236;28;20664;-81
2021/10/07 06:19:17;;;;;;;19.60;10.23;;;;;;;;;;5111769;28;20164;-81
2021/10/07 06:21:42;;;;;;;14.77;9.95;;;;;;;;;;5099820;28;20199;-81
2021/10/07 06:24:07;;;;;;;18.73;9.57;;;;;;;;;;5099105;28;20204;-81
2021/10/07 06:26:32;;;;;;;13.60;9.13;;;;;;;;;;5099171;28;20543;-81
2021/10/07 06:28:58;;;;;;;16.35;9.73;;;;;;;;;;5108525;28;20176;-81
2021/10/07 06:31:23;;;;;;;16.85;9.77;;;;;;;;;;5104553;28;20179;-81
2021/10/07 06:33:48;;;;;;;15.30;10.05;;;;;;;;;;5103588;28;20211;-81
2021/10/07 06:36:13;;;;;;;18.67;11.15;;;;;;;;;;5101881;28;20166;-81
2021/10/07 06:38:38;;;;;;;20.75;12.43;;;;;;;;;;5099617;28;20176;-81
2021/10/07 06:41:04;;;;;;;24.48;14.45;;;;;;;;;;5075831;28;20244;-81
2021/10/07 06:43:29;;;;;;;23.05;14.30;;;;;;;;;;5089144;28;20234;-81
2021/10/07 06:45:54;;;;;;;27.30;15.48;;;;;;;;;;5097829;28;20168;-81
2021/10/07 06:48:19;;;;;;;33.95;18.40;;;;;;;;;;5095229;28;20255;-81
2021/10/07 06:50:45;;;;;;;31.48;18.23;;;;;;;;;;5095487;28;20173;-82
2021/10/07 06:53:10;;;;;;;69.65;19.33;;;;;;;;;;5094173;28;20200;-81
2021/10/07 06:55:36;;;;;;;62.80;15.85;;;;;;;;;;5094369;28;20238;-82
2021/10/07 06:58:01;;;;;;;46.28;16.17;;;;;;;;;;5109311;28;20211;-82
2021/10/07 07:00:27;;;;;;;25.27;14.60;;;;;;;;;;5094906;28;20195;-81
2021/10/07 07:02:53;;;;;;;24.33;15.02;;;;;;;;;;5112709;28;20630;-81
2021/10/07 07:05:18;;;;;;;26.70;13.38;;;;;;;;;;5106439;28;20199;-81
2021/10/07 07:07:43;;;;;;;23.48;13.25;;;;;;;;;;5105599;28;20637;-82
2021/10/07 07:10:17;;;;;;;17.17;12.85;;;;;;;;;;5096127;28;20210;-81
2021/10/07 07:12:42;;;;;;;25.80;14.52;;;;;;;;;;5095034;28;20196;-81
2021/10/07 07:15:07;;;;;;;23.42;13.15;;;;;;;;;;5092422;28;20272;-80
2021/10/07 07:17:32;;;;;;;22.58;12.70;;;;;;;;;;5092338;28;20173;-81
2021/10/07 07:20:00;;;;;;;16.23;12.00;;;;;;;;;;5092914;28;20168;-81
2021/10/07 07:22:25;;;;;;;21.27;13.02;;;;;;;;;;5092568;28;20252;-81
2021/10/07 07:24:50;;;;;;;26.80;18.10;;;;;;;;;;5094277;28;20223;-81
2021/10/07 07:27:16;;;;;;;24.30;18.83;;;;;;;;;;5093087;28;20266;-81
2021/10/07 07:29:42;;;;;;;25.83;20.13;;;;;;;;;;5092617;28;20519;-80
2021/10/07 07:32:07;;;;;;;25.75;18.15;;;;;;;;;;5093532;28;20204;-81
2021/10/07 07:34:32;;;;;;;16.92;13.85;;;;;;;;;;5095204;28;20677;-81
2021/10/07 07:36:58;;;;;;;14.23;12.00;;;;;;;;;;5094814;28;20521;-81
2021/10/07 07:39:23;;;;;;;16.25;12.73;;;;;;;;;;5092895;28;20637;-82
2021/10/07 07:41:48;;;;;;;13.38;11.98;;;;;;;;;;5093145;28;20506;-80
2021/10/07 07:44:14;;;;;;;14.20;12.45;;;;;;;;;;5087845;22;20332;-77
2021/10/07 07:46:40;;;;;;;18.23;13.80;;;;;;;;;;5071636;28;20244;-77
2021/10/07 07:49:05;;;;;;;17.00;13.55;;;;;;;;;;5069597;28;20183;-77
2021/10/07 07:51:32;;;;;;;17.58;12.93;;;;;;;;;;5071697;28;20176;-77
2021/10/07 07:53:57;;;;;;;16.80;12.07;;;;;;;;;;5071781;28;20721;-77
2021/10/07 07:56:22;;;;;;;18.02;11.40;;;;;;;;;;5051792;28;20257;-77
2021/10/07 07:58:48;;;;;;;18.63;10.82;;;;;;;;;;5045690;28;20170;-77
2021/10/07 08:01:13;;;;;;;15.02;10.98;;;;;;;;;;5047950;28;20231;-77
2021/10/07 08:03:38;;;;;;;15.02;10.90;;;;;;;;;;5048391;28;20224;-77
2021/10/07 08:06:04;;;;;;;10.43;9.03;;;;;;;;;;5048678;28;20186;-77
2021/10/07 08:08:29;;;;;;;9.85;8.85;;;;;;;;;;5048701;28;20510;-77
2021/10/07 08:10:54;;;;;;;13.80;9.95;;;;;;;;;;5049484;28;20570;-77
2021/10/07 08:13:19;;;;;;;9.65;8.75;;;;;;;;;;5044965;28;20213;-77
2021/10/07 08:15:45;;;;;;;14.13;8.77;;;;;;;;;;5050810;28;20592;-77
2021/10/07 08:18:11;;;;;;;12.30;9.07;;;;;;;;;;5049713;28;20181;-77
2021/10/07 08:20:38;;;;;;;10.43;8.60;;;;;;;;;;5050688;28;20203;-77
2021/10/07 08:23:03;;;;;;;12.73;9.38;;;;;;;;;;5051004;28;20174;-77
2021/10/07 08:25:28;;;;;;;10.95;9.40;;;;;;;;;;5047190;28;20258;-77
2021/10/07 08:27:53;;;;;;;14.57;9.57;;;;;;;;;;5051950;28;20662;-77
2021/10/07 08:30:18;;;;;;;12.57;9.02;;;;;;;;;;5049893;28;20178;-77
2021/10/07 08:32:44;;;;;;;11.45;9.23;;;;;;;;;;5053838;28;20185;-77
2021/10/07 08:35:10;;;;;;;12.10;7.70;;;;;;;;;;5053355;28;20288;-76
2021/10/07 08:37:35;;;;;;;12.85;8.75;;;;;;;;;;5054201;28;20655;-76
2021/10/07 08:40:01;;;;;;;10.32;7.75;;;;;;;;;;5054644;28;20204;-76
2021/10/07 08:42:28;;;;;;;10.40;8.02;;;;;;;;;;5053563;28;20166;-76
2021/10/07 08:44:53;;;;;;;9.45;6.80;;;;;;;;;;5053085;28;20210;-76
2021/10/07 08:47:19;;;;;;;9.52;7.22;;;;;;;;;;5054321;28;20174;-76
2021/10/07 08:49:45;;;;;;;8.80;7.50;;;;;;;;;;5051717;28;20263;-76
2021/10/07 08:52:11;;;;;;;8.98;7.25;;;;;;;;;;5054035;28;20182;-76
2021/10/07 08:54:36;;;;;;;8.80;6.80;;;;;;;;;;5053811;28;20234;-76
2021/10/07 08:57:02;;;;;;;9.10;7.40;;;;;;;;;;5050494;28;20166;-76
2021/10/07 08:59:28;;;;;;;13.18;7.40;;;;;;;;;;5045176;28;20251;-76
2021/10/07 09:01:57;;;;;;;9.43;7.95;;;;;;;;;;5050411;28;20580;-75
2021/10/07 09:04:27;;;;;;;10.10;7.40;;;;;;;;;;5050374;28;20201;-76
2021/10/07 09:06:53;;;;;;;7.80;7.00;;;;;;;;;;5054034;28;20173;-75
2021/10/07 09:09:19;;;;;;;11.07;6.75;;;;;;;;;;5053963;28;20184;-75
2021/10/07 09:11:54;;;;;;;10.02;7.85;;;;;;;;;;5051907;28;20170;-75
2021/10/07 09:14:24;;;;;;;9.43;7.07;;;;;;;;;;5061370;28;20197;-75
2021/10/07 09:16:50;;;;;;;8.25;6.63;;;;;;;;;;5053761;28;20330;-75
2021/10/07 09:19:23;;;;;;;10.27;6.65;;;;;;;;;;5051293;28;20659;-75
2021/10/07 09:21:50;;;;;;;7.05;5.95;;;;;;;;;;5052467;28;20180;-75
2021/10/07 09:24:28;;;;;;;8.25;6.75;;;;;;;;;;5045344;28;20189;-75
2021/10/07 09:26:57;;;;;;;7.60;6.90;;;;;;;;;;5049549;28;20173;-75
2021/10/07 09:29:42;;;;;;;6.88;5.90;;;;;;;;;;5048971;28;20174;-75
2021/10/07 09:32:07;;;;;;;9.05;6.43;;;;;;;;;;5052056;28;20612;-75
2021/10/07 09:34:40;;;;;;;7.43;6.20;;;;;;;;;;5050377;28;20230;-75
2021/10/07 09:37:18;;;;;;;7.68;6.80;;;;;;;;;;5053671;28;20216;-75
2021/10/07 09:39:51;;;;;;;7.53;6.70;;;;;;;;;;5048297;28;20193;-75
2021/10/07 09:42:21;;;;;;;8.02;6.68;;;;;;;;;;5052053;28;20200;-74
2021/10/07 09:44:56;;;;;;;8.00;6.25;;;;;;;;;;5060006;28;20210;-74
2021/10/07 09:47:32;;;;;;;7.78;7.07;;;;;;;;;;5051316;28;20177;-75
2021/10/07 09:50:17;;;;;;;11.00;6.72;;;;;;;;;;5048699;28;20231;-75
2021/10/07 09:52:43;;;;;;;7.93;7.00;;;;;;;;;;5046382;28;20217;-75
2021/10/07 09:55:13;;;;;;;7.63;5.78;;;;;;;;;;5055816;28;20258;-74
2021/10/07 09:58:07;;;;;;;8.80;6.30;;;;;;;;;;5039064;28;20320;-74
2021/10/07 10:00:37;;;;;;;9.88;7.25;;;;;;;;;;4976206;28;20193;-75
2021/10/07 10:03:03;;;;;;;7.32;5.82;;;;;;;;;;5051348;28;20304;-74
2021/10/07 10:05:29;;;;;;;8.32;5.60;;;;;;;;;;5052880;28;20169;-74
2021/10/07 10:07:55;;;;;;;7.93;5.65;;;;;;;;;;5052783;28;20184;-74
2021/10/07 10:10:20;;;;;;;7.95;5.82;;;;;;;;;;5052961;28;20201;-75
2021/10/07 10:12:45;;;;;;;7.35;6.57;;;;;;;;;;5052529;28;20276;-74
2021/10/07 10:15:11;;;;;;;7.47;6.03;;;;;;;;;;5052489;28;20194;-75
2021/10/07 10:17:37;;;;;;;8.15;6.75;;;;;;;;;;5052602;28;20198;-74
2021/10/07 10:20:06;;;;;;;7.22;6.53;;;;;;;;;;5055057;28;20193;-74
2021/10/07 10:22:32;;;;;;;7.25;6.55;;;;;;;;;;5057604;28;20205;-74
2021/10/07 10:24:58;;;;;;;6.43;5.80;;;;;;;;;;5050518;28;20678;-74
2021/10/07 10:27:23;;;;;;;7.40;6.03;;;;;;;;;;5052360;28;20190;-74
2021/10/07 10:29:48;;;;;;;10.70;6.90;;;;;;;;;;5050495;28;20173;-74
2021/10/07 10:32:14;;;;;;;11.60;7.25;;;;;;;;;;5049821;28;20184;-74
2021/10/07 10:34:44;;;;;;;9.05;7.38;;;;;;;;;;5051442;28;20200;-73
2021/10/07 10:37:10;;;;;;;8.32;7.53;;;;;;;;;;5052082;28;20260;-73
2021/10/07 10:39:39;;;;;;;7.75;6.90;;;;;;;;;;5051819;28;20170;-73
2021/10/07 10:42:05;;;;;;;7.93;6.38;;;;;;;;;;5052113;28;20162;-73
2021/10/07 10:44:32;;;;;;;8.90;7.10;;;;;;;;;;5042857;28;20233;-73
2021/10/07 10:46:58;;;;;;;6.53;5.85;;;;;;;;;;5044064;28;20663;-73
2021/10/07 10:49:34;;;;;;;7.55;6.38;;;;;;;;;;5048593;28;20187;-73
2021/10/07 10:52:00;;;;;;;10.82;7.55;;;;;;;;;;5050799;28;20459;-73
2021/10/07 10:54:29;;;;;;;8.13;7.43;;;;;;;;;;5048445;28;20209;-72
2021/10/07 10:56:59;;;;;;;7.68;6.93;;;;;;;;;;5051966;28;20192;-73
2021/10/07 10:59:25;;;;;;;7.47;6.75;;;;;;;;;;5047449;28;20686;-73
2021/10/07 11:02:09;;;;;;;10.05;7.57;;;;;;;;;;5044276;28;20277;-73
2021/10/07 11:04:47;;;;;;;8.70;7.80;;;;;;;;;;5051441;28;20697;-73
2021/10/07 11:07:15;;;;;;;7.88;6.82;;;;;;;;;;5050513;28;20270;-73
2021/10/07 11:09:59;;;;;;;8.35;6.30;;;;;;;;;;5051509;28;20178;-73
2021/10/07 11:12:25;;;;;;;8.82;7.85;;;;;;;;;;5048928;28;20173;-73
2021/10/07 11:14:50;;;;;;;10.30;8.23;;;;;;;;;;5050115;28;20643;-73
2021/10/07 11:17:18;;;;;;;8.65;7.75;;;;;;;;;;5051681;28;20176;-73
2021/10/07 11:19:43;;;;;;;8.52;6.90;;;;;;;;;;5049745;28;20174;-73
2021/10/07 11:22:09;;;;;;;7.97;7.18;;;;;;;;;;5050162;28;20184;-73
2021/10/07 11:24:34;;;;;;;10.02;7.20;;;;;;;;;;5050042;28;20203;-73
2021/10/07 11:27:00;;;;;;;9.23;7.20;;;;;;;;;;5051230;28;20198;-73
2021/10/07 11:29:25;;;;;;;11.00;7.20;;;;;;;;;;5052125;28;20170;-73
2021/10/07 11:31:50;;;;;;;7.60;6.70;;;;;;;;;;5048900;28;20549;-72
2021/10/07 11:34:15;;;;;;;8.63;6.77;;;;;;;;;;5051051;28;20515;-73
2021/10/07 11:36:40;;;;;;;7.25;6.55;;;;;;;;;;5050270;28;20450;-72
2021/10/07 11:39:05;;;;;;;7.57;6.90;;;;;;;;;;5050019;28;20178;-73
2021/10/07 11:41:35;;;;;;;7.70;6.90;;;;;;;;;;5046888;28;20552;-73
2021/10/07 11:44:01;;;;;;;6.82;6.15;;;;;;;;;;5049093;28;20457;-73
2021/10/07 11:46:26;;;;;;;6.57;5.88;;;;;;;;;;5044185;28;20654;-73
2021/10/07 11:48:53;;;;;;;9.93;6.85;;;;;;;;;;5049917;28;20220;-73
2021/10/07 11:51:19;;;;;;;6.90;6.18;;;;;;;;;;5047848;28;20182;-73
2021/10/07 11:53:46;;;;;;;7.15;6.45;;;;;;;;;;5047269;28;20197;-73
2021/10/07 11:56:15;;;;;;;8.48;7.07;;;;;;;;;;5049295;28;20220;-72
2021/10/07 11:58:41;;;;;;;7.60;6.88;;;;;;;;;;5048420;28;20227;-72
2021/10/07 12:01:08;;;;;;;7.68;6.47;;;;;;;;;;5049718;28;20257;-73
2021/10/07 12:03:34;;;;;;;8.50;6.80;;;;;;;;;;5050542;28;20580;-73
2021/10/07 12:06:02;;;;;;;10.93;7.20;;;;;;;;;;5043276;28;20656;-73
2021/10/07 12:08:29;;;;;;;7.00;6.20;;;;;;;;;;5049678;28;20184;-72
2021/10/07 12:11:02;;;;;;;9.68;6.45;;;;;;;;;;5048401;28;20178;-73
2021/10/07 12:13:29;;;;;;;7.13;6.40;;;;;;;;;;5044285;28;20205;-75
2021/10/07 12:15:56;;;;;;;7.60;6.90;;;;;;;;;;5049544;28;20552;-72
2021/10/07 12:18:24;;;;;;;7.95;7.15;;;;;;;;;;5045108;28;20253;-75
2021/10/07 12:20:56;;;;;;;9.25;7.35;;;;;;;;;;5064428;28;20177;-74
2021/10/07 12:23:21;;;;;;;8.10;7.40;;;;;;;;;;5051128;28;20685;-73
2021/10/07 12:25:52;;;;;;;7.78;6.60;;;;;;;;;;5050762;28;20453;-73
2021/10/07 12:28:17;;;;;;;8.27;7.38;;;;;;;;;;5051299;28;20269;-73
2021/10/07 12:31:15;;;;;;;9.85;8.10;;;;;;;;;;5033187;28;20479;-73
2021/10/07 12:33:40;;;;;;;8.73;7.43;;;;;;;;;;5021113;28;20209;-73
2021/10/07 12:36:06;;;;;;;9.45;7.35;;;;;;;;;;5048869;28;20186;-73
2021/10/07 12:38:48;;;;;;;8.77;7.03;;;;;;;;;;5037651;28;20170;-74
2021/10/07 12:41:13;;;;;;;10.70;7.47;;;;;;;;;;5036723;28;20177;-73
2021/10/07 12:43:55;;;;;;;7.85;7.03;;;;;;;;;;5050726;28;20201;-73
2021/10/07 12:46:21;;;;;;;8.38;7.57;;;;;;;;;;5031685;28;20210;-73
2021/10/07 12:48:46;;;;;;;13.93;8.57;;;;;;;;;;5044996;28;20211;-73
2021/10/07 12:51:12;;;;;;;8.35;7.40;;;;;;;;;;5049355;28;20181;-73
2021/10/07 12:53:41;;;;;;;9.88;8.68;;;;;;;;;;5049801;28;20205;-73
2021/10/07 12:56:07;;;;;;;11.43;9.68;;;;;;;;;;5050886;28;20182;-73
2021/10/07 12:58:33;;;;;;;9.68;8.77;;;;;;;;;;5050788;28;20638;-73
2021/10/07 13:01:11;;;;;;;10.07;9.07;;;;;;;;;;5050865;28;20232;-73
2021/10/07 13:03:36;;;;;;;10.70;9.70;;;;;;;;;;5050833;28;20950;-73
2021/10/07 13:06:01;;;;;;;10.73;9.23;;;;;;;;;;5051352;28;20185;-73
2021/10/07 13:08:26;;;;;;;10.13;9.13;;;;;;;;;;5053397;28;20403;-73
2021/10/07 13:10:52;;;;;;;9.32;8.38;;;;;;;;;;5052394;28;20441;-73
2021/10/07 13:13:17;;;;;;;9.27;8.30;;;;;;;;;;5050907;28;20276;-73
2021/10/07 13:15:42;;;;;;;9.15;7.95;;;;;;;;;;5052233;28;20166;-73
2021/10/07 13:18:08;;;;;;;9.10;8.20;;;;;;;;;;5047779;28;20508;-73
2021/10/07 13:20:33;;;;;;;9.27;8.30;;;;;;;;;;5033998;28;20541;-73
2021/10/07 13:22:58;;;;;;;8.35;7.32;;;;;;;;;;5034418;28;20289;-73
2021/10/07 13:25:27;;;;;;;10.80;8.98;;;;;;;;;;5032656;28;20663;-73
2021/10/07 13:27:52;;;;;;;10.82;8.82;;;;;;;;;;5051005;28;20587;-73
2021/10/07 13:30:18;;;;;;;8.80;8.00;;;;;;;;;;5063300;28;20177;-73
2021/10/07 13:32:44;;;;;;;9.55;8.27;;;;;;;;;;5049493;28;20165;-72
2021/10/07 13:35:10;;;;;;;9.32;8.02;;;;;;;;;;5053332;28;20266;-73
2021/10/07 13:37:36;;;;;;;8.43;7.53;;;;;;;;;;5052719;28;20219;-73
2021/10/07 13:40:02;;;;;;;9.25;8.35;;;;;;;;;;5052278;28;20611;-73
2021/10/07 13:42:27;;;;;;;8.73;7.80;;;;;;;;;;5053884;28;20173;-73
2021/10/07 13:44:52;;;;;;;8.80;7.97;;;;;;;;;;5085447;22;20285;-73
2021/10/07 13:47:17;;;;;;;8.68;6.93;;;;;;;;;;5094192;28;20401;-75
2021/10/07 13:49:43;;;;;;;8.00;7.20;;;;;;;;;;5092963;28;20174;-73
2021/10/07 13:52:09;;;;;;;9.02;7.72;;;;;;;;;;5095436;28;20423;-75
2021/10/07 13:54:36;;;;;;;9.48;8.48;;;;;;;;;;5089524;28;20687;-74
2021/10/07 13:57:01;;;;;;;11.18;7.90;;;;;;;;;;5085080;28;20169;-75
2021/10/07 13:59:26;;;;;;;9.50;7.82;;;;;;;;;;5087319;28;20172;-75
2021/10/07 14:01:52;;;;;;;10.17;8.53;;;;;;;;;;5094678;28;20220;-75
2021/10/07 14:04:17;;;;;;;11.80;8.47;;;;;;;;;;5081152;28;20440;-75
2021/10/07 14:06:42;;;;;;;9.73;7.40;;;;;;;;;;5085662;28;20423;-75
2021/10/07 14:09:07;;;;;;;7.97;6.80;;;;;;;;;;5081812;28;20789;-75
2021/10/07 14:11:34;;;;;;;9.33;7.60;;;;;;;;;;5083400;28;20424;-74
2021/10/07 14:13:59;;;;;;;9.52;8.25;;;;;;;;;;5084789;28;20835;-75
2021/10/07 14:16:25;;;;;;;8.88;8.00;;;;;;;;;;5083616;28;20222;-74
2021/10/07 14:18:50;;;;;;;8.97;8.07;;;;;;;;;;5077233;28;20694;-75
2021/10/07 14:21:15;;;;;;;9.13;7.57;;;;;;;;;;5081043;28;20401;-74
2021/10/07 14:23:41;;;;;;;9.63;8.63;;;;;;;;;;5079443;28;20171;-75
2021/10/07 14:26:07;;;;;;;12.73;9.60;;;;;;;;;;5071534;28;20211;-73
2021/10/07 14:28:32;;;;;;;11.68;9.40;;;;;;;;;;5084847;28;20196;-74
2021/10/07 14:30:57;;;;;;;9.67;8.63;;;;;;;;;;5074254;28;20185;-74